Data for 08/21/2008

Time Sea-Level Adjusted Pressure Absolute Pressure Temperature Relative Humidity Dew Point   
(mb) (inHg) (mb) (inHg) (C) (F) (%) (C) (F)
00:05 1011 29.85 840 24.81 17.4 63.4 50 7 44.6
00:10 1011 29.85 840 24.81 17.3 63.2 52 7.6 45.7
00:15 1011 29.85 840 24.81 17.2 62.9 53 7.7 45.8
00:20 1011 29.85 840 24.81 16.9 62.3 54 7.6 45.7
00:25 1011 29.85 840 24.81 16.7 62.1 53 7.2 44.9
00:30 1011 29.85 840 24.81 16.7 62.1 53 7.2 45
00:35 1011 29.85 840 24.81 16.8 62.3 53 7.3 45.1
00:40 1011 29.85 840 24.81 17.1 62.9 50 6.8 44.2
00:45 1011 29.85 840 24.81 17.5 63.4 52 7.6 45.7
00:50 1011 29.85 840 24.81 17.4 63.4 53 7.7 45.9
00:55 1011 29.85 840 24.81 17 62.6 52 7.3 45.2
01:00 1011 29.85 840 24.81 16.8 62.3 54 7.5 45.6
01:05 1011 29.85 840 24.81 16.8 62.3 55 7.7 45.9
01:10 1011 29.85 840 24.81 16.9 62.5 55 8 46.3
01:15 1011 29.85 840 24.81 16.9 62.5 52 7.1 44.8
01:20 1011 29.85 840 24.81 17.1 62.8 51 7.1 44.8
01:25 1011 29.85 840 24.81 17.3 63.1 51 7.1 44.7
01:30 1011 29.85 840 24.81 17.2 63 52 7.4 45.4
01:35 1011 29.85 840 24.81 17 62.5 53 7.5 45.6
01:40 1011 29.85 840 24.81 16.7 62 55 7.6 45.6
01:45 1011 29.85 840 24.81 16.4 61.6 56 7.8 46.1
01:50 1011 29.85 840 24.81 16.2 61.2 57 7.7 45.9
01:55 1011 29.85 840 24.81 16.1 60.9 58 7.8 46.1
02:00 1011 29.85 840 24.81 15.8 60.5 59 8 46.4
02:05 1011 29.85 840 24.81 15.5 59.9 61 8 46.4
02:10 1011 29.85 840 24.81 15.2 59.4 63 8.3 47
02:15 1011 29.85 840 24.81 14.5 58.1 66 8.3 47
02:20 1011 29.85 840 24.81 14.2 57.5 65 7.8 46
02:25 1011 29.85 840 24.81 14 57.1 64 7.3 45.2
02:30 1011 29.85 840 24.81 14.2 57.5 64 7.6 45.6
02:35 1011 29.85 840 24.81 14.2 57.6 65 7.7 45.8
02:40 1010 29.83 840 24.81 13.8 56.9 66 7.6 45.7
02:45 1010 29.83 840 24.81 13.5 56.4 65 7.2 44.9
02:50 1010 29.83 840 24.81 13.5 56.2 66 7.3 45.2
02:55 1011 29.85 840 24.81 13 55.5 68 7.4 45.3
03:00 1011 29.85 840 24.81 13 55.5 68 7.2 45
03:05 1011 29.85 840 24.81 13.3 55.9 66 7.1 44.9
03:10 1011 29.85 840 24.81 13.6 56.5 66 7.3 45.2
03:15 1011 29.85 840 24.81 13.4 56.1 68 7.6 45.7
03:20 1011 29.85 840 24.81 12.5 54.5 71 7.5 45.4
03:25 1011 29.85 840 24.81 12.4 54.4 72 7.5 45.5
03:30 1011 29.85 840 24.81 12.5 54.5 69 6.9 44.5
03:35 1011 29.85 840 24.81 12.9 55.3 67 6.9 44.4
03:40 1011 29.85 840 24.81 13 55.3 68 7.3 45.1
03:45 1011 29.85 840 24.81 12.7 54.8 68 7.1 44.7
03:50 1011 29.85 840 24.81 12.6 54.6 68 6.9 44.5
03:55 1011 29.85 840 24.81 12.5 54.5 70 7.2 45
04:00 1011 29.85 840 24.81 12.1 53.8 71 7 44.7
04:05 1011 29.85 840 24.81 12.1 53.9 70 6.8 44.3
04:10 1011 29.85 840 24.81 12.5 54.4 69 6.9 44.5
04:15 1011 29.85 840 24.81 12.8 55.1 68 7 44.7
04:20 1011 29.85 841 24.83 13.1 55.6 68 7.4 45.3
04:25 1011 29.85 841 24.83 13.2 55.8 69 7.8 46
04:30 1012 29.88 841 24.83 13.3 56 70 8 46.3
04:35 1011 29.85 841 24.83 13.4 56 70 8.1 46.6
04:40 1011 29.85 840 24.81 13.4 56.1 71 8.3 46.9
04:45 1011 29.85 840 24.81 13.3 56 71 8.2 46.8
04:50 1011 29.85 840 24.81 13.2 55.8 72 8.4 47.1
04:55 1011 29.85 840 24.81 13 55.5 72 8.1 46.6
05:00 1011 29.85 840 24.81 12.8 55 73 8.1 46.6
05:05 1011 29.85 840 24.81 12.2 54 73 7.7 45.8
05:10 1011 29.85 840 24.81 11.7 53.1 75 7.4 45.2
05:15 1011 29.85 840 24.81 11.4 52.4 76 7.4 45.3
05:20 1011 29.85 840 24.81 11.3 52.3 77 7.4 45.4
05:25 1011 29.85 840 24.81 11.3 52.3 77 7.5 45.4
05:30 1011 29.85 840 24.81 11.3 52.4 77 7.6 45.6
05:35 1011 29.85 840 24.81 11.2 52.2 78 7.5 45.6
05:40 1011 29.85 840 24.81 11 51.7 79 7.5 45.5
05:45 1011 29.85 840 24.81 10.9 51.6 80 7.6 45.6
05:50 1011 29.85 840 24.81 11 51.9 79 7.5 45.5
05:55 1011 29.85 840 24.81 11.5 52.7 76 7.5 45.5
06:00 1011 29.85 840 24.81 12.2 53.9 74 7.7 45.9
06:05 1011 29.85 840 24.81 12.3 54.1 75 8 46.4
06:10 1011 29.85 840 24.81 11.4 52.6 78 7.8 46
06:15 1011 29.85 840 24.81 10.9 51.6 80 7.5 45.6
06:20 1011 29.85 840 24.81 10.6 51.1 80 7.2 45
06:25 1010 29.83 840 24.81 10.6 51 79 7.2 44.9
06:30 1010 29.83 840 24.81 10.5 51 80 7.2 45
06:35 1010 29.83 840 24.81 10.4 50.8 80 7.2 44.9
06:40 1010 29.83 840 24.81 10.5 50.8 81 7.3 45.1
06:45 1010 29.83 839 24.78 10.5 50.9 81 7.3 45.2
06:50 1010 29.83 839 24.78 10.6 51 80 7.3 45.2
06:55 1010 29.83 840 24.81 10.7 51.3 80 7.5 45.5
07:00 1010 29.83 840 24.81 10.7 51.2 81 7.5 45.6
07:05 1010 29.83 840 24.81 10.5 51 81 7.4 45.3
07:10 1010 29.83 839 24.78 10.6 51.1 81 7.5 45.5
07:15 1010 29.83 839 24.78 10.7 51.3 80 7.5 45.6
07:20 1010 29.83 839 24.78 11 51.7 79 7.4 45.4
07:25 1010 29.83 839 24.78 11.2 52.1 78 7.5 45.6
07:30 1010 29.83 839 24.78 11.4 52.4 77 7.5 45.6
07:35 1010 29.83 839 24.78 11.6 52.8 76 7.6 45.6
07:40 1010 29.83 839 24.78 11.9 53.4 75 7.6 45.6
07:45 1010 29.83 839 24.78 12.2 53.9 74 7.7 45.9
07:50 1010 29.83 839 24.78 12.3 54.2 73 7.7 45.9
07:55 1010 29.83 839 24.78 12.6 54.7 72 7.8 46.1
08:00 1010 29.83 839 24.78 12.9 55.2 71 7.8 46.1
08:05 1010 29.83 839 24.78 13.4 56.1 69 8 46.4
08:10 1010 29.83 839 24.78 13.5 56.3 70 8.2 46.7
08:15 1010 29.83 839 24.78 13.4 56.1 69 7.9 46.2
08:20 1010 29.83 839 24.78 13.7 56.6 69 8.2 46.8
08:25 1010 29.83 839 24.78 13.5 56.3 69 8 46.4
08:30 1010 29.83 839 24.78 13.9 57 67 7.9 46.3
08:35 1010 29.83 839 24.78 14.4 57.9 64 7.8 46
08:40 1010 29.83 839 24.78 14.9 58.7 63 7.8 46.1
08:45 1010 29.83 839 24.78 15.1 59.1 63 8.1 46.5
08:50 1010 29.83 839 24.78 15.2 59.3 61 7.9 46.2
08:55 1010 29.83 839 24.78 15.2 59.3 62 8 46.5
09:00 1010 29.83 839 24.78 15.6 60 59 7.7 45.8
09:05 1010 29.83 839 24.78 16.6 61.9 56 7.8 46
09:10 1010 29.83 839 24.78 17.2 62.9 54 8 46.4
09:15 1010 29.83 839 24.78 17.1 62.8 57 8.7 47.6
09:20 1010 29.83 839 24.78 16.3 61.3 59 8.4 47.2
09:25 1010 29.83 839 24.78 16 60.8 60 8.2 46.8
09:30 1010 29.83 839 24.78 16 60.8 59 8.2 46.7
09:35 1010 29.83 839 24.78 15.8 60.5 61 8.5 47.3
09:40 1010 29.83 839 24.78 16.2 61.1 62 8.9 48
09:45 1010 29.83 839 24.78 16.2 61.2 60 8.5 47.2
09:50 1010 29.83 839 24.78 16.3 61.3 61 8.8 47.8
09:55 1010 29.83 839 24.78 16.3 61.3 62 9.1 48.3
10:00 1010 29.83 839 24.78 16 60.7 62 8.9 48
10:05 1010 29.83 839 24.78 16.2 61.1 62 9.1 48.3
10:10 1010 29.83 839 24.78 16 60.9 65 9.5 49.1
10:15 1010 29.83 839 24.78 15.6 60 66 9.3 48.7
10:20 1010 29.83 839 24.78 15.5 59.9 66 9.2 48.5
10:25 1010 29.83 839 24.78 15.8 60.4 64 9 48.1
10:30 1010 29.83 839 24.78 16.1 60.9 63 9.1 48.5
10:35 1010 29.83 839 24.78 16.3 61.4 63 9.3 48.7
10:40 1010 29.83 839 24.78 16.5 61.8 62 9.2 48.6
10:45 1010 29.83 839 24.78 17 62.7 61 9.5 49
10:50 1010 29.83 839 24.78 17 62.5 59 9.1 48.3
10:55 1010 29.83 839 24.78 16.9 62.5 59 9 48.1
11:00 1010 29.83 839 24.78 17.4 63.3 56 8.6 47.5
11:05 1010 29.83 839 24.78 17.9 64.2 54 8.7 47.6
11:10 1009 29.8 839 24.78 17.9 64.2 55 8.8 47.9
11:15 1009 29.8 839 24.78 18.5 65.4 52 8.6 47.5
11:20 1009 29.8 838 24.75 19.4 67 48 8.1 46.7
11:25 1009 29.8 838 24.75 20.4 68.6 46 8.5 47.3
11:30 1009 29.8 838 24.75 20.9 69.7 49 9.9 49.8
11:35 1009 29.8 838 24.75 19.6 67.2 51 9.3 48.8
11:40 1009 29.8 838 24.75 19.5 67 49 8.7 47.6
11:45 1009 29.8 838 24.75 20.6 69 46 8.7 47.6
11:50 1009 29.8 838 24.75 20.8 69.4 46 8.8 47.9
11:55 1009 29.8 838 24.75 21.2 70.1 43 8.4 47.1
12:00 1009 29.8 838 24.75 20.8 69.4 45 8.7 47.7
12:05 1009 29.8 838 24.75 21.1 70 43 8.2 46.8
12:10 1009 29.8 838 24.75 21.8 71.2 43 9 48.1
12:15 1009 29.8 838 24.75 21.5 70.7 43 8.7 47.6
12:20 1008 29.77 838 24.75 21.5 70.7 44 8.9 48
12:25 1009 29.8 838 24.75 21.2 70.1 47 9.7 49.4
12:30 1009 29.8 838 24.75 20.4 68.7 48 9.1 48.3
12:35 1008 29.77 837 24.72 20.4 68.7 46 8.6 47.5
12:40 1008 29.77 837 24.72 20.6 69.2 44 8.1 46.5
12:45 1008 29.77 837 24.72 20.6 69.1 44 8.2 46.8
12:50 1008 29.77 837 24.72 20.7 69.3 42 7.6 45.7
12:55 1008 29.77 837 24.72 20.9 69.7 43 7.9 46.2
13:00 1008 29.77 837 24.72 21.3 70.3 42 8.1 46.6
13:05 1008 29.77 837 24.72 21.2 70.2 43 8.3 46.9
13:10 1008 29.77 837 24.72 20.9 69.7 44 8.2 46.8
13:15 1008 29.77 837 24.72 21.2 70.1 41 7.5 45.4
13:20 1008 29.77 837 24.72 21.7 71 40 7.6 45.7
13:25 1008 29.77 837 24.72 21.6 70.9 42 8.2 46.8
13:30 1008 29.77 837 24.72 21.1 70 46 9.2 48.6
13:35 1008 29.77 837 24.72 20.8 69.4 51 10.4 50.7
13:40 1008 29.77 837 24.72 20.7 69.3 47 9.2 48.6
13:45 1008 29.77 837 24.72 21 69.7 50 10.4 50.8
13:50 1008 29.77 837 24.72 21.3 70.3 51 10.8 51.5
13:55 1008 29.77 837 24.72 21.3 70.4 44 8.8 47.8
14:00 1008 29.77 837 24.72 21.5 70.8 45 9.1 48.4
14:05 1008 29.77 837 24.72 20.8 69.5 51 10.5 50.9
14:10 1008 29.77 837 24.72 20.2 68.3 54 10.7 51.2
14:15 1008 29.77 837 24.72 20.1 68.2 53 10.5 50.9
14:20 1008 29.77 837 24.72 20.6 69.1 54 11.3 52.3
14:25 1007 29.74 837 24.72 21.5 70.7 46 9.7 49.5
14:30 1007 29.74 837 24.72 21.6 70.8 42 8.3 46.9
14:35 1007 29.74 837 24.72 21.4 70.5 44 8.8 47.8
14:40 1007 29.74 837 24.72 21.7 71 45 9.4 48.9
14:45 1007 29.74 837 24.72 21.8 71.2 46 9.9 49.8
14:50 1007 29.74 837 24.72 21.2 70.2 52 11 51.8
14:55 1007 29.74 836 24.69 21 69.8 51 10.7 51.2
15:00 1007 29.74 837 24.72 20.4 68.8 57 11.7 53.1
15:05 1007 29.74 836 24.69 20.5 68.9 54 11 51.8
15:10 1007 29.74 836 24.69 20.4 68.6 56 11.4 52.4
15:15 1007 29.74 837 24.72 20.2 68.4 53 10.6 51
15:20 1007 29.74 836 24.69 20.2 68.4 58 11.8 53.3
15:25 1007 29.74 836 24.69 19.9 67.8 56 11 51.8
15:30 1007 29.74 837 24.72 19.9 67.8 53 10.2 50.4
15:35 1007 29.74 837 24.72 20.3 68.5 53 10.5 50.9
15:40 1008 29.77 837 24.72 20.2 68.4 55 11 51.9
15:45 1007 29.74 837 24.72 20.4 68.7 48 9.1 48.4
15:50 1007 29.74 837 24.72 20.8 69.5 51 10.4 50.6
15:55 1007 29.74 837 24.72 21.5 70.6 45 9.1 48.4
16:00 1007 29.74 836 24.69 21.9 71.5 40 7.8 46.1
16:05 1007 29.74 837 24.72 21.6 70.9 39 7.4 45.4
16:10 1008 29.77 837 24.72 21.7 71 38 6.7 44.1
16:15 1008 29.77 837 24.72 21.4 70.6 38 6.7 44.1
16:20 1008 29.77 837 24.72 21.5 70.8 37 6.6 43.9
16:25 1008 29.77 837 24.72 21.5 70.7 37 6.3 43.4
16:30 1008 29.77 837 24.72 21.6 70.9 36 5.9 42.7
16:35 1008 29.77 837 24.72 21.8 71.2 37 6.6 43.8
16:40 1008 29.77 837 24.72 21.7 71.1 37 6.6 43.8
16:45 1008 29.77 837 24.72 21.5 70.6 37 6.2 43.1
16:50 1008 29.77 837 24.72 21.8 71.2 35 5.9 42.7
16:55 1008 29.77 837 24.72 21.3 70.3 40 7.1 44.8
17:00 1008 29.77 837 24.72 20.7 69.3 38 6.1 42.9
17:05 1008 29.77 838 24.75 20.7 69.3 37 5.7 42.3
17:10 1009 29.8 838 24.75 20.9 69.6 36 5.6 42.1
17:15 1009 29.8 838 24.75 20.9 69.7 36 5.6 42
17:20 1009 29.8 838 24.75 20.9 69.6 37 5.9 42.6
17:25 1009 29.8 838 24.75 20.5 69 37 5.6 42
17:30 1009 29.8 838 24.75 20.4 68.7 39 6 42.8
17:35 1009 29.8 838 24.75 20.3 68.6 38 5.8 42.4
17:40 1009 29.8 838 24.75 20.8 69.4 37 5.9 42.5
17:45 1009 29.8 838 24.75 20.7 69.2 38 5.9 42.7
17:50 1009 29.8 838 24.75 19.7 67.5 39 5.4 41.6
17:55 1009 29.8 838 24.75 19.1 66.4 42 5.9 42.6
18:00 1009 29.8 839 24.78 18.6 65.4 41 5.2 41.3
18:05 1010 29.83 839 24.78 17.6 63.7 44 5.4 41.7
18:10 1010 29.83 839 24.78 17 62.5 45 5.1 41.1
18:15 1010 29.83 839 24.78 16.6 61.8 46 5 41
18:20 1010 29.83 840 24.81 16.4 61.5 47 5.1 41.2
18:25 1010 29.83 840 24.81 16.2 61.1 48 5.3 41.5
18:30 1011 29.85 840 24.81 16 60.8 48 5.1 41.2
18:35 1011 29.85 840 24.81 15.9 60.5 47 4.7 40.4
18:40 1011 29.85 840 24.81 15.5 59.9 49 4.9 40.7
18:45 1011 29.85 840 24.81 15.4 59.7 48 4.5 40
18:50 1011 29.85 840 24.81 15.3 59.5 46 4 39.2
18:55 1011 29.85 841 24.83 15 59.1 47 3.9 39.1
19:00 1012 29.88 841 24.83 14.7 58.4 49 4.2 39.5
19:05 1012 29.88 841 24.83 14.3 57.8 48 3.7 38.6
19:10 1012 29.88 841 24.83 14.1 57.5 49 3.7 38.6
19:15 1012 29.88 841 24.83 14.1 57.4 48 3.3 37.9
19:20 1012 29.88 841 24.83 13.9 57.1 48 3.3 38
19:25 1012 29.88 842 24.86 13.9 56.9 48 3.2 37.7
19:30 1013 29.91 842 24.86 13.7 56.7 49 3.2 37.8
19:35 1013 29.91 842 24.86 13.6 56.6 49 3.2 37.7
19:40 1013 29.91 842 24.86 13.5 56.3 49 3.2 37.8
19:45 1013 29.91 843 24.89 13.5 56.2 49 3.2 37.7
19:50 1014 29.94 843 24.89 13.4 56 50 3.1 37.6
19:55 1014 29.94 843 24.89 13.3 56 50 3.2 37.8
20:00 1014 29.94 843 24.89 13.3 55.9 50 3.2 37.7
20:05 1014 29.94 843 24.89 13.2 55.8 51 3.3 37.9
20:10 1014 29.94 843 24.89 13.1 55.6 50 3.1 37.6
20:15 1014 29.94 843 24.89 13 55.5 51 3.2 37.8
20:20 1014 29.94 843 24.89 13 55.4 52 3.3 37.9
20:25 1014 29.94 844 24.92 12.9 55.2 51 3.2 37.7
20:30 1015 29.97 844 24.92 12.8 55.1 52 3.4 38.1
20:35 1015 29.97 844 24.92 12.8 55 52 3.4 38
20:40 1015 29.97 844 24.92 12.7 54.9 53 3.5 38.2
20:45 1015 29.97 844 24.92 12.6 54.7 54 3.6 38.6
20:50 1015 29.97 844 24.92 12.4 54.4 56 4.1 39.4
20:55 1015 29.97 844 24.92 12.3 54.2 58 4.3 39.8
21:00 1015 29.97 845 24.95 12.1 53.8 59 4.4 39.9
21:05 1015 29.97 845 24.95 12 53.6 59 4.3 39.8
21:10 1016 30 845 24.95 11.9 53.4 58 3.9 39.1
21:15 1016 30 845 24.95 11.7 53 60 4.1 39.4
21:20 1016 30 845 24.95 11.5 52.7 62 4.5 40
21:25 1016 30 845 24.95 11.3 52.3 65 4.9 40.8
21:30 1016 30 845 24.95 11.1 52 67 5.3 41.6
21:35 1016 30 845 24.95 10.9 51.5 66 4.9 40.7
21:40 1016 30 845 24.95 10.8 51.5 65 4.5 40
21:45 1016 30 846 24.98 10.9 51.5 66 4.7 40.5
21:50 1016 30 846 24.98 10.8 51.5 66 4.8 40.7
21:55 1017 30.03 846 24.98 10.7 51.3 67 4.9 40.9
22:00 1016 30 846 24.98 10.6 51.1 68 4.9 40.8
22:05 1017 30.03 846 24.98 10.5 51 66 4.4 39.9
22:10 1017 30.03 846 24.98 10.4 50.7 62 3.5 38.2
22:15 1017 30.03 846 24.98 10.3 50.5 63 3.6 38.4
22:20 1017 30.03 846 24.98 10 50.1 65 3.8 38.9
22:25 1017 30.03 846 24.98 10 50.1 62 3.1 37.6
22:30 1017 30.03 846 24.98 10 50 63 3.2 37.8
22:35 1016 30 846 24.98 10 50 64 3.5 38.4
22:40 1016 30 846 24.98 9.9 49.9 63 3.4 38
22:45 1016 30 846 24.98 9.9 49.7 64 3.4 38.1
22:50 1016 30 846 24.98 9.8 49.7 67 3.9 39.1
22:55 1016 30 846 24.98 9.8 49.6 63 3.2 37.7
23:00 1016 30 846 24.98 9.9 49.9 61 2.9 37.3
23:05 1016 30 846 24.98 10.1 50.2 62 3.1 37.6
23:10 1016 30 845 24.95 10.1 50.2 62 3.3 37.9
23:15 1016 30 846 24.98 10.2 50.4 61 3.1 37.5
23:20 1016 30 846 24.98 10.3 50.6 59 2.7 36.8
23:25 1017 30.03 846 24.98 10.3 50.5 61 3 37.4
23:30 1017 30.03 846 24.98 10.2 50.4 60 2.9 37.3
23:35 1017 30.03 846 24.98 10.2 50.4 58 2.5 36.5
23:40 1017 30.03 846 24.98 10.3 50.5 59 2.8 37
23:45 1017 30.03 846 24.98 10.3 50.6 59 2.8 37
23:50 1017 30.03 846 24.98 10.3 50.6 58 2.4 36.4
23:55 1017 30.03 846 24.98 10.5 50.9 55 1.8 35.3
24:00 1017 30.03 846 24.98 10.6 51.1 56 2.2 36